Time;durP1;ratioP1;P1;durP2;ratioP2;P2;SDS_P1;SDS_P2;PMS_P1;PMS_P2;Temp;Humidity;BMP_temperature;BMP_pressure;BME280_temperature;BME280_humidity;BME280_pressure;Samples;Min_cycle;Max_cycle;Signal;HPM_P1;HPM_P2
2022/06/17 00:01:24;;;;;;;;;;;22.50;54.00;;;;;;5011669;28;19906;-94
2022/06/17 00:03:51;;;;;;;;;;;22.50;54.00;;;;;;5012417;28;19933;-94
2022/06/17 00:06:18;;;;;;;;;;;22.50;54.10;;;;;;5012041;28;20009;-94
2022/06/17 00:08:45;;;;;;;;;;;22.50;54.10;;;;;;5013001;28;19969;-93
2022/06/17 00:11:16;;;;;;;;;;;22.50;54.10;;;;;;5010883;28;20000;-94
2022/06/17 00:13:43;;;;;;;;;;;22.50;54.20;;;;;;5009842;28;19912;-93
2022/06/17 00:16:13;;;;;;;;;;;22.40;54.10;;;;;;5011128;28;19905;-93
2022/06/17 00:18:44;;;;;;;;;;;22.40;54.20;;;;;;5010407;28;19941;-94
2022/06/17 00:21:16;;;;;;;;;;;22.40;54.20;;;;;;5010898;28;20083;-93
2022/06/17 00:23:42;;;;;;;;;;;22.40;54.20;;;;;;5009375;28;20334;-94
2022/06/17 00:26:08;;;;;;;;;;;22.40;54.20;;;;;;5007772;28;20491;-93
2022/06/17 00:28:33;;;;;;;;;;;22.40;54.30;;;;;;5007421;28;20248;-93
2022/06/17 00:31:00;;;;;;;;;;;22.30;54.30;;;;;;5006960;28;19906;-93
2022/06/17 00:33:26;;;;;;;;;;;22.30;54.30;;;;;;5006443;28;19948;-93
2022/06/17 00:35:53;;;;;;;;;;;22.30;54.30;;;;;;5006044;28;19906;-94
2022/06/17 00:38:24;;;;;;;;;;;22.30;54.40;;;;;;5005677;28;19906;-93
2022/06/17 00:40:52;;;;;;;;;;;22.20;54.50;;;;;;5006914;28;19975;-95
2022/06/17 00:43:28;;;;;;;;;;;22.20;54.50;;;;;;5008368;28;19941;-93
2022/06/17 00:46:16;;;;;;;;;;;22.20;54.60;;;;;;5008173;28;20196;-93
2022/06/17 00:48:49;;;;;;;;;;;22.20;54.60;;;;;;5007955;28;19969;-93
2022/06/17 00:51:22;;;;;;;;;;;22.20;54.60;;;;;;5007751;28;20109;-93
2022/06/17 00:53:58;;;;;;;;;;;22.20;54.80;;;;;;5007488;28;19917;-93
2022/06/17 00:56:24;;;;;;;;;;;22.20;54.80;;;;;;5006486;28;19906;-93
2022/06/17 00:59:01;;;;;;;;;;;22.10;54.80;;;;;;5019669;28;19969;-95
2022/06/17 01:02:04;;;;;;;;;;;22.10;55.40;;;;;;5019356;28;19894;-94
2022/06/17 01:04:49;;;;;;;;;;;22.10;55.10;;;;;;5019758;28;19973;-94
2022/06/17 01:07:17;;;;;;;;;;;22.10;55.20;;;;;;5019980;28;19901;-95
2022/06/17 01:18:45;;;;;;;;;;;22.00;55.50;;;;;;5020227;28;19901;-94
2022/06/17 01:21:30;;;;;;;;;;;22.00;55.70;;;;;;5019517;28;19894;-93
2022/06/17 01:23:55;;;;;;;;;;;22.00;55.80;;;;;;5019384;28;19918;-94
2022/06/17 01:29:24;;;;;;;;;;;21.90;56.10;;;;;;5016832;28;19946;-94
2022/06/17 01:31:52;;;;;;;;;;;21.90;56.30;;;;;;5019224;28;19913;-93
2022/06/17 01:34:18;;;;;;;;;;;21.90;56.40;;;;;;5019216;28;19894;-95
2022/06/17 01:37:16;;;;;;;;;;;21.90;56.40;;;;;;5018990;28;19932;-94
2022/06/17 01:39:43;;;;;;;;;;;21.90;56.50;;;;;;5019147;28;19909;-94
2022/06/17 01:42:09;;;;;;;;;;;21.90;56.50;;;;;;5018598;28;19894;-94
2022/06/17 01:44:37;;;;;;;;;;;21.90;56.70;;;;;;5018230;28;19941;-94
2022/06/17 01:47:07;;;;;;;;;;;21.80;56.70;;;;;;5018020;28;19898;-94
2022/06/17 01:49:38;;;;;;;;;;;21.80;56.80;;;;;;5018403;28;19910;-94
2022/06/17 01:52:05;;;;;;;;;;;21.80;57.10;;;;;;5018379;28;19917;-94
2022/06/17 01:54:33;;;;;;;;;;;21.80;57.20;;;;;;5018423;28;19901;-94
2022/06/17 01:57:01;;;;;;;;;;;21.80;57.20;;;;;;5018305;28;19914;-94
2022/06/17 01:59:30;;;;;;;;;;;21.80;57.30;;;;;;5018359;28;19894;-94
2022/06/17 02:01:58;;;;;;;;;;;21.80;57.50;;;;;;5018620;28;19910;-94
2022/06/17 02:04:25;;;;;;;;;;;21.70;57.50;;;;;;5018117;28;19906;-94
2022/06/17 02:07:09;;;;;;;;;;;21.70;57.70;;;;;;5018571;28;19910;-94
2022/06/17 02:09:44;;;;;;;;;;;21.70;57.80;;;;;;5018347;28;19909;-93
2022/06/17 02:12:11;;;;;;;;;;;21.70;57.80;;;;;;5018931;28;19930;-94
2022/06/17 02:14:38;;;;;;;;;;;21.70;58.00;;;;;;5018845;28;19894;-94
2022/06/17 02:17:04;;;;;;;;;;;21.70;58.10;;;;;;5018868;28;19897;-94
2022/06/17 02:19:32;;;;;;;;;;;21.70;58.40;;;;;;5018824;28;19945;-94
2022/06/17 02:22:09;;;;;;;;;;;21.70;58.40;;;;;;5018781;28;19953;-94
2022/06/17 02:24:35;;;;;;;;;;;21.60;58.50;;;;;;5018843;28;19905;-95
2022/06/17 02:27:02;;;;;;;;;;;21.60;58.60;;;;;;5018592;28;19890;-95
2022/06/17 02:29:30;;;;;;;;;;;21.60;58.70;;;;;;5018283;28;19894;-94
2022/06/17 02:31:58;;;;;;;;;;;21.60;58.80;;;;;;5018553;28;19929;-94
2022/06/17 02:37:12;;;;;;;;;;;21.60;58.80;;;;;;5018775;28;19978;-94
2022/06/17 02:39:41;;;;;;;;;;;21.60;58.80;;;;;;5018071;28;19977;-94
2022/06/17 02:42:10;;;;;;;;;;;21.60;59.00;;;;;;5017114;28;20064;-94
2022/06/17 02:44:46;;;;;;;;;;;21.50;59.20;;;;;;5017150;28;19912;-94
2022/06/17 02:47:11;;;;;;;;;;;21.50;59.20;;;;;;5018550;28;19916;-94
2022/06/17 02:49:39;;;;;;;;;;;21.50;59.40;;;;;;5021352;28;19910;-94
2022/06/17 02:52:10;;;;;;;;;;;21.50;59.50;;;;;;5022070;28;19904;-94
2022/06/17 02:57:25;;;;;;;;;;;21.40;59.60;;;;;;5022861;28;19900;-94
2022/06/17 03:00:03;;;;;;;;;;;21.40;59.60;;;;;;5022377;28;19893;-94
2022/06/17 03:02:35;;;;;;;;;;;21.40;59.70;;;;;;5021627;28;19894;-94
2022/06/17 03:11:33;;;;;;;;;;;21.40;60.10;;;;;;5022632;28;19948;-94
2022/06/17 03:14:04;;;;;;;;;;;21.30;60.00;;;;;;5021732;28;20016;-95
2022/06/17 03:16:30;;;;;;;;;;;21.30;60.10;;;;;;5021779;28;19941;-94
2022/06/17 03:18:55;;;;;;;;;;;21.30;60.20;;;;;;5021925;28;19902;-94
2022/06/17 03:21:54;;;;;;;;;;;21.30;60.20;;;;;;5021653;28;19928;-94
2022/06/17 03:24:25;;;;;;;;;;;21.30;60.30;;;;;;5022115;28;19906;-93
2022/06/17 03:27:10;;;;;;;;;;;21.30;60.40;;;;;;5021726;28;19953;-93
2022/06/17 03:32:26;;;;;;;;;;;21.20;60.70;;;;;;5021538;28;19928;-94
2022/06/17 03:34:52;;;;;;;;;;;21.20;60.80;;;;;;5021466;28;19973;-95
2022/06/17 03:37:27;;;;;;;;;;;21.20;60.90;;;;;;5021464;28;19894;-94
2022/06/17 03:40:03;;;;;;;;;;;21.20;61.10;;;;;;5021536;28;19918;-95
2022/06/17 03:42:31;;;;;;;;;;;21.20;61.10;;;;;;5021062;28;19894;-94
2022/06/17 03:51:02;;;;;;;;;;;21.20;61.60;;;;;;5013046;28;19924;-94
2022/06/17 03:53:35;;;;;;;;;;;21.20;61.70;;;;;;5008094;28;19905;-93
2022/06/17 03:56:10;;;;;;;;;;;21.20;61.90;;;;;;5008240;28;19905;-93
2022/06/17 03:58:37;;;;;;;;;;;21.20;61.90;;;;;;5007822;28;19913;-93
2022/06/17 04:01:11;;;;;;;;;;;21.20;61.80;;;;;;5007609;28;19906;-93
2022/06/17 04:03:38;;;;;;;;;;;21.20;62.00;;;;;;5006297;28;19928;-93
2022/06/17 04:06:10;;;;;;;;;;;21.20;62.10;;;;;;5006092;28;19909;-93
2022/06/17 04:08:51;;;;;;;;;;;21.20;62.10;;;;;;5006249;28;19909;-93
2022/06/17 04:11:18;;;;;;;;;;;21.20;62.30;;;;;;5004554;28;20159;-93
2022/06/17 04:13:43;;;;;;;;;;;21.20;62.40;;;;;;5005523;28;20260;-93
2022/06/17 04:16:17;;;;;;;;;;;21.20;62.40;;;;;;5005752;28;19916;-93
2022/06/17 04:18:44;;;;;;;;;;;21.30;62.30;;;;;;5005289;28;19945;-93
2022/06/17 04:21:11;;;;;;;;;;;21.30;62.30;;;;;;5005897;28;19933;-93
2022/06/17 04:23:37;;;;;;;;;;;21.30;62.30;;;;;;5002933;28;19910;-94
2022/06/17 04:26:18;;;;;;;;;;;21.40;62.00;;;;;;5002560;28;19906;-93
2022/06/17 04:28:59;;;;;;;;;;;21.40;61.90;;;;;;5003444;28;19906;-93
2022/06/17 04:31:26;;;;;;;;;;;21.40;61.70;;;;;;5003045;28;20077;-93
2022/06/17 04:33:58;;;;;;;;;;;21.50;61.70;;;;;;5001980;28;19906;-93
2022/06/17 04:36:26;;;;;;;;;;;21.50;61.80;;;;;;5001191;28;19906;-93
2022/06/17 04:38:57;;;;;;;;;;;21.40;61.90;;;;;;5001246;28;20283;-93
2022/06/17 04:41:25;;;;;;;;;;;21.40;61.80;;;;;;5002317;28;19913;-93
2022/06/17 04:43:52;;;;;;;;;;;21.40;62.10;;;;;;5000662;28;19921;-93
2022/06/17 04:46:22;;;;;;;;;;;21.50;62.00;;;;;;5002332;28;19948;-94
2022/06/17 04:48:49;;;;;;;;;;;21.50;61.80;;;;;;5004796;28;19913;-94
2022/06/17 04:51:15;;;;;;;;;;;21.60;61.90;;;;;;5001642;28;19914;-94
2022/06/17 04:53:45;;;;;;;;;;;21.60;61.80;;;;;;5005263;28;20153;-93
2022/06/17 04:56:16;;;;;;;;;;;21.60;61.70;;;;;;5002476;28;20004;-94
2022/06/17 04:58:41;;;;;;;;;;;21.60;61.60;;;;;;5004355;28;19917;-94
2022/06/17 05:01:14;;;;;;;;;;;21.60;61.30;;;;;;5004049;28;19906;-94
2022/06/17 05:03:39;;;;;;;;;;;21.60;61.50;;;;;;5004063;28;19920;-94
2022/06/17 05:06:10;;;;;;;;;;;21.60;61.40;;;;;;5006323;28;19906;-93
2022/06/17 05:08:39;;;;;;;;;;;21.70;62.00;;;;;;5005507;28;19909;-94
2022/06/17 05:11:13;;;;;;;;;;;21.70;61.70;;;;;;5005775;28;19917;-94
2022/06/17 05:14:10;;;;;;;;;;;21.70;61.40;;;;;;5005605;28;19968;-94
2022/06/17 05:16:35;;;;;;;;;;;21.80;60.90;;;;;;5007152;28;19905;-94
2022/06/17 05:19:01;;;;;;;;;;;21.90;61.60;;;;;;5009153;28;19905;-94
2022/06/17 05:21:27;;;;;;;;;;;21.90;62.60;;;;;;5007369;28;20097;-94
2022/06/17 05:23:54;;;;;;;;;;;22.00;61.70;;;;;;5006915;28;20196;-94
2022/06/17 05:26:20;;;;;;;;;;;22.00;62.00;;;;;;5007881;28;19905;-94
2022/06/17 05:28:46;;;;;;;;;;;22.10;61.50;;;;;;5009172;28;19910;-94
2022/06/17 05:31:17;;;;;;;;;;;22.20;59.90;;;;;;5010223;28;19933;-94
2022/06/17 05:33:43;;;;;;;;;;;22.30;59.30;;;;;;5008600;28;19909;-94
2022/06/17 05:36:09;;;;;;;;;;;22.40;58.70;;;;;;5012046;28;19985;-94
2022/06/17 05:38:34;;;;;;;;;;;22.50;58.50;;;;;;5019256;28;19901;-95
2022/06/17 05:41:37;;;;;;;;;;;22.50;58.10;;;;;;5018964;28;19910;-94
2022/06/17 05:44:02;;;;;;;;;;;22.60;58.30;;;;;;5018532;28;19902;-95
2022/06/17 05:46:28;;;;;;;;;;;22.70;58.00;;;;;;5019170;28;19914;-95
2022/06/17 05:48:54;;;;;;;;;;;22.80;57.30;;;;;;5019307;28;19910;-95
2022/06/17 05:54:23;;;;;;;;;;;23.00;56.80;;;;;;5019364;28;19908;-94
2022/06/17 05:56:49;;;;;;;;;;;23.10;56.50;;;;;;5018554;28;19902;-94
2022/06/17 05:59:17;;;;;;;;;;;23.20;56.40;;;;;;5018457;28;19974;-95
2022/06/17 06:01:42;;;;;;;;;;;23.20;56.20;;;;;;5018218;28;19924;-94
2022/06/17 06:04:08;;;;;;;;;;;23.20;56.40;;;;;;5017991;28;19906;-94
2022/06/17 06:06:35;;;;;;;;;;;23.30;55.90;;;;;;5018158;28;19910;-94
2022/06/17 06:09:00;;;;;;;;;;;23.40;56.10;;;;;;5016189;28;19898;-95
2022/06/17 06:11:26;;;;;;;;;;;23.40;57.60;;;;;;5018600;28;19964;-95
2022/06/17 06:13:51;;;;;;;;;;;23.40;57.90;;;;;;5018609;28;19910;-95
2022/06/17 06:19:35;;;;;;;;;;;23.50;55.50;;;;;;5019392;28;19917;-94
2022/06/17 06:22:00;;;;;;;;;;;23.60;55.30;;;;;;5019127;28;19948;-94
2022/06/17 06:24:26;;;;;;;;;;;23.70;55.70;;;;;;5022841;28;19918;-94
2022/06/17 06:26:51;;;;;;;;;;;23.70;54.90;;;;;;5022970;28;19894;-95
2022/06/17 06:29:45;;;;;;;;;;;24.10;54.10;;;;;;5022811;28;19901;-94
2022/06/17 06:32:10;;;;;;;;;;;24.40;53.50;;;;;;5022582;28;19910;-95
2022/06/17 06:34:36;;;;;;;;;;;24.30;53.20;;;;;;5022694;28;19920;-95
2022/06/17 06:37:02;;;;;;;;;;;24.30;53.20;;;;;;5022546;28;19902;-95
2022/06/17 06:39:27;;;;;;;;;;;24.30;53.10;;;;;;5022554;28;19940;-94
2022/06/17 06:41:53;;;;;;;;;;;24.40;53.10;;;;;;5022448;28;19894;-94
2022/06/17 06:44:18;;;;;;;;;;;24.40;53.30;;;;;;5015913;28;19924;-94
2022/06/17 06:46:45;;;;;;;;;;;24.40;53.10;;;;;;5014794;28;19945;-94
2022/06/17 06:49:11;;;;;;;;;;;24.40;53.00;;;;;;5015448;28;19906;-94
2022/06/17 06:51:36;;;;;;;;;;;24.30;53.70;;;;;;5015885;28;19905;-94
2022/06/17 06:54:03;;;;;;;;;;;24.30;53.40;;;;;;5017315;28;19929;-94
2022/06/17 06:56:29;;;;;;;;;;;24.30;53.30;;;;;;5016866;28;19902;-94
2022/06/17 06:58:55;;;;;;;;;;;24.30;53.30;;;;;;5019288;28;19917;-95
2022/06/17 07:01:21;;;;;;;;;;;24.30;53.40;;;;;;5017447;28;19933;-95
2022/06/17 07:04:05;;;;;;;;;;;24.40;53.30;;;;;;5018140;28;19944;-94
2022/06/17 07:06:33;;;;;;;;;;;24.50;53.00;;;;;;5017931;28;19905;-95
2022/06/17 07:08:58;;;;;;;;;;;24.80;52.30;;;;;;5016524;28;19921;-94
2022/06/17 07:11:24;;;;;;;;;;;25.00;51.90;;;;;;5016192;28;19906;-95
2022/06/17 07:13:52;;;;;;;;;;;25.40;51.40;;;;;;5011899;28;19976;-94
2022/06/17 07:16:18;;;;;;;;;;;25.70;50.80;;;;;;5018530;28;19914;-94
2022/06/17 07:18:43;;;;;;;;;;;26.00;50.40;;;;;;5020012;28;19909;-95
2022/06/17 07:21:10;;;;;;;;;;;26.10;49.90;;;;;;5020329;28;19894;-95
2022/06/17 07:23:50;;;;;;;;;;;26.10;49.70;;;;;;5017673;28;19914;-95
2022/06/17 07:26:21;;;;;;;;;;;26.30;49.60;;;;;;5018076;28;19917;-95
2022/06/17 07:28:47;;;;;;;;;;;26.50;49.10;;;;;;5018036;28;19906;-94
2022/06/17 07:31:13;;;;;;;;;;;26.60;48.80;;;;;;5018299;28;19925;-96
2022/06/17 07:33:39;;;;;;;;;;;26.70;48.50;;;;;;5016551;28;19906;-95
2022/06/17 07:36:05;;;;;;;;;;;26.90;48.40;;;;;;5012406;28;20118;-96
2022/06/17 07:41:17;;;;;;;;;;;27.10;48.10;;;;;;5015934;28;19916;-95
2022/06/17 07:43:43;;;;;;;;;;;27.10;48.00;;;;;;5013520;28;19920;-96
2022/06/17 07:46:08;;;;;;;;;;;27.20;47.90;;;;;;5017327;28;19910;-95
2022/06/17 07:48:34;;;;;;;;;;;27.30;47.80;;;;;;5018583;28;19898;-96
2022/06/17 07:51:00;;;;;;;;;;;27.30;47.80;;;;;;5018861;28;19921;-95
2022/06/17 07:53:27;;;;;;;;;;;27.40;47.70;;;;;;5017249;28;19933;-95
2022/06/17 07:56:30;;;;;;;;;;;27.40;47.50;;;;;;5020177;28;19977;-95
2022/06/17 07:58:56;;;;;;;;;;;27.50;47.50;;;;;;5019050;28;19917;-96
2022/06/17 08:01:21;;;;;;;;;;;27.60;47.30;;;;;;5018571;28;19910;-96
2022/06/17 08:03:47;;;;;;;;;;;27.60;47.30;;;;;;5019042;28;19929;-95
2022/06/17 08:06:14;;;;;;;;;;;27.60;47.30;;;;;;5019432;28;19905;-96
2022/06/17 08:08:40;;;;;;;;;;;27.60;47.40;;;;;;5018214;28;19910;-96
2022/06/17 08:11:06;;;;;;;;;;;27.60;47.30;;;;;;5020369;28;19893;-96
2022/06/17 08:13:32;;;;;;;;;;;27.70;47.20;;;;;;5019518;28;19898;-96
2022/06/17 08:16:35;;;;;;;;;;;27.70;47.20;;;;;;5020366;28;19894;-96
2022/06/17 08:19:04;;;;;;;;;;;27.70;47.20;;;;;;5019147;28;19960;-96
2022/06/17 08:21:30;;;;;;;;;;;27.70;47.30;;;;;;5019526;28;19932;-96
2022/06/17 08:23:56;;;;;;;;;;;27.70;47.70;;;;;;5008619;28;19979;-95
2022/06/17 08:26:31;;;;;;;;;;;27.80;47.30;;;;;;5016239;28;19901;-96
2022/06/17 08:28:57;;;;;;;;;;;27.80;47.20;;;;;;5016521;28;19906;-96
2022/06/17 08:31:24;;;;;;;;;;;27.80;47.20;;;;;;5015858;28;19913;-95
2022/06/17 08:33:56;;;;;;;;;;;27.90;47.30;;;;;;5015726;28;19920;-95
2022/06/17 08:36:24;;;;;;;;;;;27.90;47.20;;;;;;5017536;28;19937;-96
2022/06/17 08:39:07;;;;;;;;;;;28.00;47.60;;;;;;5018286;28;19894;-96
2022/06/17 08:41:35;;;;;;;;;;;28.00;47.10;;;;;;5030605;23;19948;-8
2022/06/17 08:44:13;;;;;;;;;;;28.00;47.00;;;;;;5008315;28;19991;-8
2022/06/17 08:46:59;;;;;;;;;;;28.00;47.10;;;;;;5007916;28;19912;-12
2022/06/17 08:49:34;;;;;;;;;;;28.10;46.40;;;;;;5009812;28;20170;-9
2022/06/17 08:52:08;;;;;;;;;;;28.20;46.50;;;;;;5010913;28;19905;-9
2022/06/17 08:54:34;;;;;;;;;;;28.20;46.40;;;;;;5006016;28;19910;-10
2022/06/17 08:57:22;;;;;;;;;;;28.20;46.60;;;;;;4991188;28;19921;-11
2022/06/17 09:00:05;;;;;;;;;;;28.20;46.60;;;;;;4979899;28;19906;-9
2022/06/17 09:02:40;;;;;;;;;;;28.20;46.70;;;;;;4995020;28;19936;-9
2022/06/17 09:05:13;;;;;;;;;;;28.30;46.70;;;;;;5009886;28;19914;-10
2022/06/17 09:08:03;;;;;;;;;;;28.30;46.70;;;;;;5009202;28;19996;-11
2022/06/17 09:10:47;;;;;;;;;;;28.30;46.70;;;;;;5009692;28;19964;-11
2022/06/17 09:13:35;;;;;;;;;;;28.40;46.60;;;;;;5009938;28;19971;-9
2022/06/17 09:16:07;;;;;;;;;;;28.40;46.70;;;;;;5009162;28;20316;-9
2022/06/17 09:18:37;;;;;;;;;;;28.30;46.80;;;;;;5008731;28;19905;-10
2022/06/17 09:21:17;;;;;;;;;;;28.30;46.90;;;;;;5009737;28;20134;-9
2022/06/17 09:23:44;;;;;;;;;;;28.30;47.00;;;;;;5009020;28;19909;-10
2022/06/17 09:26:13;;;;;;;;;;;28.30;47.00;;;;;;5009552;28;19913;-9
2022/06/17 09:28:42;;;;;;;;;;;28.30;47.00;;;;;;5009955;28;20070;-10
2022/06/17 09:31:11;;;;;;;;;;;28.40;47.10;;;;;;5008768;28;20263;-9
2022/06/17 09:33:41;;;;;;;;;;;28.40;47.20;;;;;;5008691;28;19909;-10
2022/06/17 09:36:13;;;;;;;;;;;28.40;47.20;;;;;;5008539;28;19905;-9
2022/06/17 09:38:38;;;;;;;;;;;28.40;47.20;;;;;;5010156;28;19909;-9
2022/06/17 09:41:26;;;;;;;;;;;28.40;47.30;;;;;;5008501;28;19935;-10
2022/06/17 09:44:10;;;;;;;;;;;28.40;47.10;;;;;;5009614;28;19913;-12
2022/06/17 09:46:45;;;;;;;;;;;28.40;47.10;;;;;;5009060;28;19936;-9
2022/06/17 09:49:11;;;;;;;;;;;28.50;47.20;;;;;;5008121;28;20498;-10
2022/06/17 09:51:36;;;;;;;;;;;28.50;46.90;;;;;;5008752;28;20003;-10
2022/06/17 09:54:11;;;;;;;;;;;28.60;46.80;;;;;;5008120;28;20098;-10
2022/06/17 09:56:40;;;;;;;;;;;28.60;46.80;;;;;;5008539;28;20028;-9
2022/06/17 09:59:21;;;;;;;;;;;28.60;46.70;;;;;;5008871;28;19996;-9
2022/06/17 10:01:47;;;;;;;;;;;28.60;46.60;;;;;;5008786;28;20303;-9
2022/06/17 10:04:14;;;;;;;;;;;28.70;46.70;;;;;;5008580;28;20070;-11
2022/06/17 10:06:58;;;;;;;;;;;28.70;46.80;;;;;;5008608;28;19906;-10
2022/06/17 10:09:30;;;;;;;;;;;28.70;46.70;;;;;;5007672;28;19928;-10
2022/06/17 10:12:14;;;;;;;;;;;28.70;46.10;;;;;;5009257;28;20263;-10
2022/06/17 10:14:58;;;;;;;;;;;28.70;46.40;;;;;;5008436;28;19935;-10
2022/06/17 10:20:18;;;;;;;;;;;28.70;47.00;;;;;;5006975;28;20004;-9
2022/06/17 10:22:44;;;;;;;;;;;28.70;46.60;;;;;;5002021;28;20497;-9
2022/06/17 10:25:38;;;;;;;;;;;28.60;46.80;;;;;;4998728;28;19913;-9
2022/06/17 10:28:30;;;;;;;;;;;28.60;46.90;;;;;;4990966;28;19909;-10
2022/06/17 10:31:01;;;;;;;;;;;28.50;47.00;;;;;;5010532;28;20251;-9
2022/06/17 10:33:29;;;;;;;;;;;28.50;46.40;;;;;;5005002;28;20344;-10
2022/06/17 10:36:04;;;;;;;;;;;28.60;45.00;;;;;;5011695;28;19914;-10
2022/06/17 10:38:31;;;;;;;;;;;28.60;44.50;;;;;;5009930;28;20417;-11
2022/06/17 10:40:57;;;;;;;;;;;28.60;45.30;;;;;;5003500;28;19917;-11
2022/06/17 10:43:29;;;;;;;;;;;28.60;45.90;;;;;;5009328;28;20069;-10
2022/06/17 10:45:55;;;;;;;;;;;28.50;46.00;;;;;;5008225;28;20026;-11
2022/06/17 10:48:26;;;;;;;;;;;28.50;46.30;;;;;;5007915;28;20472;-9
2022/06/17 10:50:51;;;;;;;;;;;28.50;46.50;;;;;;5008277;28;19936;-11
2022/06/17 10:53:21;;;;;;;;;;;28.40;46.60;;;;;;5007269;28;19909;-9
2022/06/17 10:55:49;;;;;;;;;;;28.40;46.70;;;;;;5008387;28;20209;-10
2022/06/17 10:58:34;;;;;;;;;;;28.40;46.30;;;;;;5008229;28;19986;-10
2022/06/17 11:01:04;;;;;;;;;;;28.50;46.30;;;;;;5009515;28;20157;-9
2022/06/17 11:03:34;;;;;;;;;;;28.50;46.20;;;;;;5007177;28;19909;-9
2022/06/17 11:06:09;;;;;;;;;;;28.60;45.50;;;;;;5007477;28;19905;-9
2022/06/17 11:08:53;;;;;;;;;;;28.60;45.40;;;;;;5006920;28;19913;-11
2022/06/17 11:14:21;;;;;;;;;;;28.50;46.40;;;;;;5009552;28;19959;-10
2022/06/17 11:16:46;;;;;;;;;;;28.60;46.70;;;;;;5010012;28;20074;-10
2022/06/17 11:19:14;;;;;;;;;;;28.60;46.80;;;;;;5010448;28;20112;-10
2022/06/17 11:21:44;;;;;;;;;;;28.60;46.60;;;;;;5012973;28;20113;-9
2022/06/17 11:24:19;;;;;;;;;;;28.60;46.70;;;;;;5011095;28;20205;-9
2022/06/17 11:26:57;;;;;;;;;;;28.60;47.00;;;;;;5012005;28;19905;-10
2022/06/17 11:29:36;;;;;;;;;;;28.60;47.00;;;;;;5010410;28;20192;-11
2022/06/17 11:32:11;;;;;;;;;;;28.60;46.80;;;;;;5011732;28;19916;-10
2022/06/17 11:34:44;;;;;;;;;;;28.70;46.90;;;;;;5011896;28;20250;-9
2022/06/17 11:37:18;;;;;;;;;;;28.70;46.90;;;;;;5010629;28;20018;-10
2022/06/17 11:39:44;;;;;;;;;;;28.70;47.10;;;;;;5010275;28;20186;-11
2022/06/17 11:42:13;;;;;;;;;;;28.70;47.20;;;;;;5010505;28;19928;-9
2022/06/17 11:44:47;;;;;;;;;;;28.70;47.30;;;;;;5011839;28;20020;-9
2022/06/17 11:47:18;;;;;;;;;;;28.70;47.20;;;;;;5010647;28;19906;-10
2022/06/17 11:49:44;;;;;;;;;;;28.70;47.20;;;;;;5011287;28;20201;-9
2022/06/17 11:52:10;;;;;;;;;;;28.70;47.30;;;;;;5010836;28;20370;-9
2022/06/17 11:54:35;;;;;;;;;;;28.70;46.90;;;;;;5009659;28;20004;-10
2022/06/17 11:57:15;;;;;;;;;;;28.70;47.00;;;;;;5011196;28;19913;-9
2022/06/17 11:59:43;;;;;;;;;;;28.70;47.10;;;;;;5010429;28;20335;-9
2022/06/17 12:02:10;;;;;;;;;;;28.70;47.10;;;;;;5007683;28;20300;-9
2022/06/17 12:04:45;;;;;;;;;;;28.80;47.10;;;;;;5008631;28;20274;-9
2022/06/17 12:07:23;;;;;;;;;;;28.80;47.20;;;;;;5008577;28;20020;-10
2022/06/17 12:09:53;;;;;;;;;;;28.80;47.10;;;;;;5010740;28;19920;-10
2022/06/17 12:12:21;;;;;;;;;;;28.80;47.20;;;;;;5009031;28;20181;-11
2022/06/17 12:14:54;;;;;;;;;;;28.80;47.30;;;;;;5016867;28;19913;-9
2022/06/17 12:17:20;;;;;;;;;;;28.80;47.30;;;;;;5015529;28;19933;-9
2022/06/17 12:19:46;;;;;;;;;;;28.80;47.30;;;;;;5009955;28;19906;-10
2022/06/17 12:22:19;;;;;;;;;;;28.80;47.30;;;;;;4999380;28;19906;-10
2022/06/17 12:25:00;;;;;;;;;;;28.90;47.40;;;;;;4998325;28;19909;-10
2022/06/17 12:27:26;;;;;;;;;;;28.90;47.20;;;;;;4999674;28;19906;-9
2022/06/17 12:30:05;;;;;;;;;;;28.90;46.60;;;;;;5014609;28;19905;-9
2022/06/17 12:32:31;;;;;;;;;;;29.00;47.00;;;;;;5010906;28;19905;-9
2022/06/17 12:35:09;;;;;;;;;;;29.00;47.20;;;;;;5010838;28;19909;-9
2022/06/17 12:37:34;;;;;;;;;;;29.00;47.20;;;;;;5010752;28;19991;-10
2022/06/17 12:40:00;;;;;;;;;;;29.00;45.70;;;;;;5008824;28;20498;-10
2022/06/17 12:42:28;;;;;;;;;;;28.90;46.10;;;;;;5009679;28;19921;-10
2022/06/17 12:44:59;;;;;;;;;;;28.90;46.70;;;;;;5008490;28;20391;-10
2022/06/17 12:47:50;;;;;;;;;;;28.90;47.00;;;;;;5009661;28;19935;-9
2022/06/17 12:53:15;;;;;;;;;;;28.90;47.30;;;;;;5010633;28;20286;-9
2022/06/17 12:55:49;;;;;;;;;;;29.00;47.20;;;;;;5009411;28;19906;-9
2022/06/17 12:58:18;;;;;;;;;;;28.90;45.60;;;;;;5008726;28;19905;-10
2022/06/17 13:00:47;;;;;;;;;;;29.00;45.70;;;;;;5008280;28;19917;-10
2022/06/17 13:03:16;;;;;;;;;;;29.00;46.30;;;;;;5007877;28;19909;-9
2022/06/17 13:05:42;;;;;;;;;;;29.00;45.30;;;;;;5007075;28;19992;-9
2022/06/17 13:08:09;;;;;;;;;;;28.90;43.40;;;;;;5009475;28;19920;-9
2022/06/17 13:10:41;;;;;;;;;;;28.90;43.20;;;;;;5009518;28;19913;-9
2022/06/17 13:13:25;;;;;;;;;;;28.90;44.10;;;;;;5009515;28;20167;-10
2022/06/17 13:15:57;;;;;;;;;;;28.90;45.00;;;;;;5010913;28;19909;-9
2022/06/17 13:18:23;;;;;;;;;;;28.90;45.60;;;;;;5009808;28;19947;-9
2022/06/17 13:21:04;;;;;;;;;;;28.90;45.90;;;;;;5008793;28;20144;-9
2022/06/17 13:23:42;;;;;;;;;;;28.90;45.50;;;;;;5011642;28;20113;-9
2022/06/17 13:26:19;;;;;;;;;;;28.90;45.90;;;;;;5010497;28;20398;-9
2022/06/17 13:28:48;;;;;;;;;;;28.90;46.40;;;;;;5008257;28;20192;-10
2022/06/17 13:31:18;;;;;;;;;;;28.90;46.50;;;;;;5008535;28;20066;-10
2022/06/17 13:33:59;;;;;;;;;;;28.90;46.20;;;;;;5008654;28;20366;-9
2022/06/17 13:36:29;;;;;;;;;;;28.90;44.40;;;;;;5010446;28;19909;-10
2022/06/17 13:39:07;;;;;;;;;;;28.90;45.80;;;;;;5009836;28;19906;-11
2022/06/17 13:42:08;;;;;;;;;;;28.90;43.90;;;;;;5009216;28;19905;-10
2022/06/17 13:44:48;;;;;;;;;;;28.90;45.40;;;;;;4993972;28;19909;-10
2022/06/17 13:47:29;;;;;;;;;;;28.90;46.10;;;;;;5015275;28;19910;-9
2022/06/17 13:50:02;;;;;;;;;;;28.90;45.80;;;;;;5015483;28;19905;-9
2022/06/17 13:52:47;;;;;;;;;;;28.90;45.70;;;;;;5011407;28;19905;-9
2022/06/17 13:55:34;;;;;;;;;;;28.90;45.90;;;;;;5008921;28;19912;-11
2022/06/17 13:58:08;;;;;;;;;;;28.90;46.00;;;;;;5010797;28;20179;-10
2022/06/17 14:00:42;;;;;;;;;;;28.90;45.10;;;;;;5010264;28;19916;-10
2022/06/17 14:03:09;;;;;;;;;;;28.90;46.10;;;;;;5009135;28;19913;-9
2022/06/17 14:05:34;;;;;;;;;;;28.90;45.30;;;;;;5009014;28;19913;-11
2022/06/17 14:08:05;;;;;;;;;;;28.90;46.00;;;;;;5009121;28;20074;-9
2022/06/17 14:10:50;;;;;;;;;;;28.90;46.30;;;;;;5008375;28;19905;-9
2022/06/17 14:13:17;;;;;;;;;;;28.90;46.30;;;;;;5007440;28;19932;-11
2022/06/17 14:15:47;;;;;;;;;;;28.90;46.30;;;;;;5008643;28;19928;-9
2022/06/17 14:18:19;;;;;;;;;;;28.90;46.40;;;;;;5009211;28;20179;-10
2022/06/17 14:20:45;;;;;;;;;;;29.00;46.50;;;;;;5008203;28;19917;-9
2022/06/17 14:23:15;;;;;;;;;;;28.90;46.50;;;;;;5009412;28;19912;-8
2022/06/17 14:25:45;;;;;;;;;;;29.00;45.80;;;;;;5008096;28;20004;-11
2022/06/17 14:28:31;;;;;;;;;;;29.00;46.70;;;;;;5010039;28;20385;-9
2022/06/17 14:31:13;;;;;;;;;;;29.00;45.70;;;;;;5009564;28;20008;-10
2022/06/17 14:33:42;;;;;;;;;;;28.90;43.50;;;;;;5008765;28;20136;-9
2022/06/17 14:36:08;;;;;;;;;;;28.90;45.10;;;;;;5009423;28;19913;-11
2022/06/17 14:38:40;;;;;;;;;;;29.00;46.00;;;;;;5008316;28;20242;-10
2022/06/17 14:44:18;;;;;;;;;;;29.00;46.20;;;;;;5010394;28;19927;-9
2022/06/17 14:47:02;;;;;;;;;;;29.00;45.50;;;;;;5012392;28;19909;-9
2022/06/17 14:49:42;;;;;;;;;;;29.00;44.80;;;;;;5009851;28;20138;-9
2022/06/17 14:52:21;;;;;;;;;;;29.00;46.00;;;;;;5011379;28;19991;-11
2022/06/17 14:54:59;;;;;;;;;;;29.00;45.90;;;;;;5012002;28;20152;-10
2022/06/17 14:57:26;;;;;;;;;;;29.00;46.10;;;;;;5010679;28;19905;-9
2022/06/17 15:00:00;;;;;;;;;;;29.00;46.20;;;;;;5009051;28;20379;-10
2022/06/17 15:02:45;;;;;;;;;;;29.00;46.70;;;;;;5009683;28;19905;-9
2022/06/17 15:05:22;;;;;;;;;;;29.00;46.70;;;;;;5011334;28;20091;-9
2022/06/17 15:07:50;;;;;;;;;;;29.00;46.50;;;;;;5009188;28;19906;-9
2022/06/17 15:10:15;;;;;;;;;;;29.00;46.40;;;;;;5009506;28;20011;-9
2022/06/17 15:13:00;;;;;;;;;;;29.00;46.50;;;;;;5010687;28;19999;-10
2022/06/17 15:15:37;;;;;;;;;;;29.00;46.70;;;;;;5013791;28;19909;-11
2022/06/17 15:18:13;;;;;;;;;;;29.00;44.40;;;;;;5011194;28;20408;-10
2022/06/17 15:20:40;;;;;;;;;;;29.00;46.40;;;;;;5012324;28;20012;-9
2022/06/17 15:23:24;;;;;;;;;;;29.00;44.00;;;;;;5012081;28;20039;-9
2022/06/17 15:25:56;;;;;;;;;;;29.00;43.80;;;;;;5010831;28;20024;-9
2022/06/17 15:28:24;;;;;;;;;;;29.00;45.80;;;;;;5011202;28;19941;-10
2022/06/17 15:30:50;;;;;;;;;;;29.10;46.50;;;;;;5010756;28;20206;-9
2022/06/17 15:33:25;;;;;;;;;;;29.10;45.50;;;;;;5015901;28;20467;-10
2022/06/17 15:35:58;;;;;;;;;;;29.10;46.30;;;;;;5016816;28;20008;-12
2022/06/17 15:38:35;;;;;;;;;;;29.10;46.60;;;;;;5011871;28;19906;-9
2022/06/17 15:41:22;;;;;;;;;;;29.10;46.70;;;;;;5010147;28;19913;-11